Time;durP1;ratioP1;P1;durP2;ratioP2;P2;SDS_P1;SDS_P2;PMS_P1;PMS_P2;Temp;Humidity;BMP_temperature;BMP_pressure;BME280_temperature;BME280_humidity;BME280_pressure;Samples;Min_cycle;Max_cycle;Signal;HPM_P1;HPM_P2
2021/08/09 00:00:22;;;;;;;7.00;3.58;;;;;;;15.23;85.72;100869.41;4985829;28;20046;-81
2021/08/09 00:02:48;;;;;;;6.40;2.75;;;;;;;15.25;85.65;100880.03;4983612;28;20038;-82
2021/08/09 00:05:13;;;;;;;7.25;3.20;;;;;;;15.22;85.62;100880.41;4983105;28;20054;-82
2021/08/09 00:07:40;;;;;;;6.45;2.70;;;;;;;15.25;85.33;100882.75;4984466;28;20060;-80
2021/08/09 00:10:06;;;;;;;6.65;2.97;;;;;;;15.22;85.58;100875.00;4984599;28;20055;-81
2021/08/09 00:12:31;;;;;;;5.85;2.70;;;;;;;15.20;85.76;100882.50;4987973;28;20046;-82
2021/08/09 00:14:57;;;;;;;5.43;2.38;;;;;;;15.15;85.94;100880.34;4989076;28;20049;-81
2021/08/09 00:17:22;;;;;;;6.28;2.92;;;;;;;15.15;85.94;100887.63;4987112;28;20581;-83
2021/08/09 00:19:47;;;;;;;5.43;2.75;;;;;;;15.16;86.01;100876.59;4987984;28;20041;-79
2021/08/09 00:22:13;;;;;;;8.13;3.05;;;;;;;15.10;86.42;100882.78;4985901;28;20042;-82
2021/08/09 00:24:38;;;;;;;8.27;2.65;;;;;;;15.08;86.34;100877.59;4988524;28;20060;-83
2021/08/09 00:27:04;;;;;;;8.07;3.67;;;;;;;15.11;86.00;100888.00;4987855;28;20053;-80
2021/08/09 00:29:29;;;;;;;7.22;3.13;;;;;;;15.09;86.11;100884.66;4987441;28;20039;-81
2021/08/09 00:31:54;;;;;;;5.10;2.78;;;;;;;15.10;86.34;100880.94;5003823;28;20054;-80
2021/08/09 00:34:20;;;;;;;7.53;2.80;;;;;;;15.07;86.31;100881.28;4983433;28;20133;-81
2021/08/09 00:36:46;;;;;;;5.18;2.47;;;;;;;15.02;87.08;100891.88;4998020;28;20141;-81
2021/08/09 00:39:11;;;;;;;7.47;2.90;;;;;;;15.09;86.08;100895.47;4988752;28;20046;-82
2021/08/09 00:41:37;;;;;;;7.05;3.75;;;;;;;15.08;86.41;100880.28;4987732;28;20380;-83
2021/08/09 00:44:02;;;;;;;5.93;3.03;;;;;;;15.07;86.34;100889.41;4988345;28;20057;-82
2021/08/09 00:46:29;;;;;;;8.85;3.40;;;;;;;15.10;86.40;100893.59;4986029;28;20491;-82
2021/08/09 00:48:55;;;;;;;5.53;2.50;;;;;;;15.05;86.68;100896.06;4987677;28;20046;-81
2021/08/09 00:51:20;;;;;;;7.45;2.65;;;;;;;15.05;86.59;100896.06;4987170;28;20384;-81
2021/08/09 00:53:46;;;;;;;7.50;3.03;;;;;;;15.06;86.38;100897.72;4987494;28;20050;-82
2021/08/09 00:56:11;;;;;;;4.93;2.65;;;;;;;15.04;86.33;100899.75;5002862;28;20104;-80
2021/08/09 00:58:37;;;;;;;6.82;3.13;;;;;;;15.01;86.73;100898.28;4985754;28;20038;-82
2021/08/09 01:01:03;;;;;;;6.55;3.33;;;;;;;15.00;86.57;100902.03;4986785;28;20042;-81
2021/08/09 01:03:28;;;;;;;5.95;3.10;;;;;;;15.01;86.08;100898.28;4988670;28;20484;-82
2021/08/09 01:05:53;;;;;;;6.70;3.45;;;;;;;15.02;86.40;100899.13;4988500;28;20133;-82
2021/08/09 01:08:43;;;;;;;8.52;3.00;;;;;;;14.99;86.80;100903.06;4986649;28;20064;-81
2021/08/09 01:11:30;;;;;;;7.07;3.35;;;;;;;14.98;86.66;100906.78;4986402;28;20113;-81
2021/08/09 01:14:13;;;;;;;7.45;3.42;;;;;;;14.96;86.67;100907.97;4988349;28;20054;-79
2021/08/09 01:16:42;;;;;;;7.07;3.10;;;;;;;14.89;87.13;100899.81;4998691;28;20034;-83
2021/08/09 01:19:22;;;;;;;8.02;3.10;;;;;;;14.93;86.51;100903.78;4987848;28;20053;-82
2021/08/09 01:21:49;;;;;;;6.70;2.72;;;;;;;14.93;87.16;100894.84;4986785;28;20034;-80
2021/08/09 01:24:32;;;;;;;7.40;3.22;;;;;;;14.93;86.53;100906.50;4987720;28;20053;-80
2021/08/09 01:27:06;;;;;;;7.88;3.30;;;;;;;14.89;86.67;100907.91;4987996;28;20093;-80
2021/08/09 01:29:37;;;;;;;8.93;3.58;;;;;;;14.90;86.87;100904.16;4986572;28;20038;-82
2021/08/09 01:32:03;;;;;;;5.90;2.75;;;;;;;14.87;86.95;100918.06;4986632;28;20117;-81
2021/08/09 01:34:30;;;;;;;7.03;3.22;;;;;;;14.82;87.31;100915.13;4986293;28;20046;-82
2021/08/09 01:36:58;;;;;;;8.30;3.45;;;;;;;14.75;87.47;100912.31;4988121;28;20372;-83
2021/08/09 01:39:24;;;;;;;8.32;3.65;;;;;;;14.77;87.64;100915.66;4986640;28;20039;-82
2021/08/09 01:41:52;;;;;;;8.00;3.20;;;;;;;14.72;88.32;100914.56;4985564;28;20399;-80
2021/08/09 01:44:18;;;;;;;11.35;3.85;;;;;;;14.72;88.17;100909.16;4970087;28;20488;-80
2021/08/09 01:46:44;;;;;;;6.95;3.60;;;;;;;14.69;88.29;100918.47;5002828;28;20126;-81
2021/08/09 01:49:10;;;;;;;8.98;3.58;;;;;;;14.69;88.25;100918.47;4987235;28;20069;-81
2021/08/09 01:51:37;;;;;;;8.93;4.03;;;;;;;14.65;88.90;100918.00;4985099;28;20053;-83
2021/08/09 01:54:04;;;;;;;7.43;3.45;;;;;;;14.66;89.17;100918.84;4986158;28;20116;-82
2021/08/09 01:56:32;;;;;;;7.72;3.10;;;;;;;14.65;88.87;100911.78;4987023;28;20042;-82
2021/08/09 01:58:57;;;;;;;5.22;2.95;;;;;;;14.65;89.01;100915.31;4986395;28;20038;-80
2021/08/09 02:01:22;;;;;;;7.47;3.30;;;;;;;14.62;89.12;100915.69;4986382;28;20042;-83
2021/08/09 02:03:48;;;;;;;7.80;3.70;;;;;;;14.62;89.33;100913.00;4986769;28;20034;-82
2021/08/09 02:06:15;;;;;;;7.40;4.20;;;;;;;14.59;90.04;100918.78;4985513;28;20133;-80
2021/08/09 02:08:40;;;;;;;6.60;3.17;;;;;;;14.62;89.55;100914.88;4987506;28;20053;-82
2021/08/09 02:11:13;;;;;;;8.88;3.45;;;;;;;14.61;89.34;100915.88;4987496;28;20046;-83
2021/08/09 02:14:00;;;;;;;7.82;4.00;;;;;;;14.64;88.73;100913.66;5015507;28;20446;-80
2021/08/09 02:16:42;;;;;;;7.63;3.38;;;;;;;14.61;88.92;100913.16;4986864;28;20120;-82
2021/08/09 02:19:20;;;;;;;9.05;3.72;;;;;;;14.64;88.42;100919.06;4987063;28;20096;-83
2021/08/09 02:21:48;;;;;;;8.60;4.07;;;;;;;14.64;88.47;100921.75;4984855;28;20819;-80
2021/08/09 02:24:20;;;;;;;17.73;6.33;;;;;;;14.62;88.56;100928.38;4986946;28;20080;-80
2021/08/09 02:26:50;;;;;;;7.60;3.70;;;;;;;14.61;88.43;100934.78;4986437;28;20285;-81
2021/08/09 02:29:21;;;;;;;6.57;3.67;;;;;;;14.59;88.63;100926.03;4982761;28;20491;-82
2021/08/09 02:31:50;;;;;;;8.82;3.30;;;;;;;14.57;88.78;100931.63;4982296;28;20061;-81
2021/08/09 02:34:19;;;;;;;6.28;3.38;;;;;;;14.57;88.30;100930.78;4981796;28;20034;-80
2021/08/09 02:36:47;;;;;;;;;;;;;;;14.56;88.20;100927.25;4977124;28;20057;-82
2021/08/09 02:39:16;;;;;;;10.90;4.22;;;;;;;14.46;89.29;100929.34;4992684;28;19918;-81
2021/08/09 02:41:42;;;;;;;8.73;3.30;;;;;;;14.44;89.65;100926.84;4981312;28;20046;-83
2021/08/09 02:44:08;;;;;;;7.70;3.55;;;;;;;14.41;89.72;100927.22;4964953;28;20042;-82
2021/08/09 02:46:39;;;;;;;7.78;3.75;;;;;;;14.40;89.58;100930.94;4982098;28;20395;-83
2021/08/09 02:49:05;;;;;;;10.27;3.60;;;;;;;14.38;89.60;100924.88;4982513;28;20125;-82
2021/08/09 02:51:32;;;;;;;13.02;3.78;;;;;;;14.36;90.06;100934.19;4979667;28;20190;-81
2021/08/09 02:54:02;;;;;;;9.43;4.47;;;;;;;14.32;90.36;100932.88;4982373;28;20267;-83
2021/08/09 02:56:30;;;;;;;9.52;3.92;;;;;;;14.28;91.59;100928.88;4997730;28;20118;-81
2021/08/09 02:58:55;;;;;;;7.95;3.78;;;;;;;14.30;90.47;100937.63;4981707;28;20053;-82
2021/08/09 03:01:24;;;;;;;7.15;3.67;;;;;;;14.28;91.16;100928.88;4996889;28;20042;-80
2021/08/09 03:03:56;;;;;;;8.50;3.70;;;;;;;14.27;91.46;100927.19;4981264;28;20042;-83
2021/08/09 03:06:22;;;;;;;10.30;3.75;;;;;;;14.26;91.38;100928.22;4977815;28;20106;-81
2021/08/09 03:08:48;;;;;;;9.38;4.03;;;;;;;14.25;91.68;100931.97;4985129;28;20066;-82
2021/08/09 03:11:14;;;;;;;9.40;4.07;;;;;;;14.27;90.92;100935.28;4980481;28;20042;-80
2021/08/09 03:13:50;;;;;;;8.50;4.20;;;;;;;14.27;91.26;100938.00;4982498;28;20058;-82
2021/08/09 03:16:16;;;;;;;8.38;4.20;;;;;;;14.21;91.89;100937.72;4980899;28;20047;-82
2021/08/09 03:18:42;;;;;;;10.20;3.83;;;;;;;14.21;91.90;100940.44;4979535;28;20124;-83
2021/08/09 03:21:08;;;;;;;9.30;3.50;;;;;;;14.19;92.01;100938.94;4975543;28;20042;-82
2021/08/09 03:23:35;;;;;;;8.75;3.65;;;;;;;14.21;91.65;100942.25;4985990;28;20069;-81
2021/08/09 03:26:01;;;;;;;9.63;3.70;;;;;;;14.25;91.28;100937.34;4984486;28;20089;-82
2021/08/09 03:28:26;;;;;;;9.45;4.18;;;;;;;14.24;91.18;100941.88;4986306;28;20066;-82
2021/08/09 03:30:51;;;;;;;10.90;3.97;;;;;;;14.18;91.47;100938.09;4984616;28;20065;-81
2021/08/09 03:33:18;;;;;;;8.00;3.92;;;;;;;14.17;91.20;100941.81;4980465;28;20046;-80
2021/08/09 03:35:43;;;;;;;7.30;4.00;;;;;;;14.18;91.54;100948.91;4987664;28;20046;-81
2021/08/09 03:38:09;;;;;;;9.52;4.13;;;;;;;14.12;91.98;100938.81;4986438;28;20060;-81
2021/08/09 03:40:35;;;;;;;11.63;4.15;;;;;;;14.11;91.82;100944.41;4974893;28;20134;-83
2021/08/09 03:43:04;;;;;;;9.15;3.65;;;;;;;14.07;92.57;100946.63;4981173;28;20092;-82
2021/08/09 03:45:30;;;;;;;10.75;4.28;;;;;;;14.02;92.56;100946.34;4984832;28;20756;-81
2021/08/09 03:47:55;;;;;;;10.02;3.80;;;;;;;14.00;92.63;100941.13;4982810;28;20051;-82
2021/08/09 03:50:21;;;;;;;12.75;4.10;;;;;;;13.99;92.47;100949.41;4983043;28;20042;-81
2021/08/09 03:52:52;;;;;;;9.90;4.25;;;;;;;14.00;92.40;100953.78;4983685;28;20052;-82
2021/08/09 03:55:18;;;;;;;9.75;4.43;;;;;;;13.94;92.69;100951.81;4982167;28;20128;-80
2021/08/09 03:57:44;;;;;;;14.13;4.82;;;;;;;13.90;92.89;100950.50;4986622;28;20126;-81
2021/08/09 04:00:10;;;;;;;11.63;4.53;;;;;;;13.88;92.91;100947.97;4989643;28;20121;-82
2021/08/09 04:02:37;;;;;;;9.20;4.05;;;;;;;13.89;93.25;100948.81;4988598;28;20585;-80
2021/08/09 04:05:05;;;;;;;9.80;4.55;;;;;;;13.85;93.38;100950.22;4985069;28;20100;-82
2021/08/09 04:07:32;;;;;;;9.40;4.45;;;;;;;13.82;93.13;100953.28;4983546;28;20510;-82
2021/08/09 04:09:57;;;;;;;9.77;4.43;;;;;;;13.80;93.60;100949.91;4984218;28;20062;-83
2021/08/09 04:12:24;;;;;;;11.15;4.25;;;;;;;13.76;93.96;100955.66;4966845;28;20066;-81
2021/08/09 04:14:49;;;;;;;8.98;3.78;;;;;;;13.72;94.32;100953.50;4970509;28;20101;-83
2021/08/09 04:17:15;;;;;;;11.32;4.65;;;;;;;13.70;94.21;100945.63;4993966;28;20047;-79
2021/08/09 04:19:41;;;;;;;6.93;3.72;;;;;;;13.74;94.20;100957.69;4978235;28;20093;-83
2021/08/09 04:22:06;;;;;;;8.18;3.95;;;;;;;13.79;93.47;100948.25;4959031;28;20035;-80
2021/08/09 04:24:34;;;;;;;10.82;4.32;;;;;;;13.77;93.37;100954.63;4962901;28;20134;-83
2021/08/09 04:26:59;;;;;;;8.38;4.28;;;;;;;13.80;93.63;100944.53;4960840;28;20083;-82
2021/08/09 04:29:25;;;;;;;8.45;3.78;;;;;;;13.79;93.41;100948.25;4966544;28;20042;-81
2021/08/09 04:31:53;;;;;;;10.43;3.65;;;;;;;13.79;93.62;100943.69;4999008;28;20042;-81
2021/08/09 04:34:20;;;;;;;8.98;3.97;;;;;;;13.81;93.37;100955.13;4979320;28;20049;-82
2021/08/09 04:36:45;;;;;;;8.98;4.18;;;;;;;13.81;93.23;100948.88;4999867;28;20042;-80
2021/08/09 04:39:11;;;;;;;8.25;4.07;;;;;;;13.81;93.44;100948.88;4985295;28;20057;-84
2021/08/09 04:41:38;;;;;;;7.25;3.17;;;;;;;13.87;92.92;100943.63;4985140;28;20057;-81
2021/08/09 04:44:05;;;;;;;7.70;3.20;;;;;;;13.88;92.91;100953.38;4998185;28;20838;-81
2021/08/09 04:46:30;;;;;;;7.63;3.20;;;;;;;13.89;92.75;100952.34;4983315;28;20125;-79
2021/08/09 04:48:56;;;;;;;12.43;3.83;;;;;;;13.91;92.81;100949.47;4982994;28;20475;-82
2021/08/09 04:51:21;;;;;;;6.57;3.97;;;;;;;13.93;92.47;100966.34;4983666;28;20038;-81
2021/08/09 04:53:47;;;;;;;11.57;3.97;;;;;;;13.95;92.46;100966.97;4980068;28;20526;-81
2021/08/09 04:56:12;;;;;;;12.00;3.70;;;;;;;13.93;92.77;100960.94;4989829;28;20133;-83
2021/08/09 04:58:38;;;;;;;6.03;3.35;;;;;;;13.92;92.86;100975.44;4979849;28;20396;-80
2021/08/09 05:01:04;;;;;;;9.43;3.63;;;;;;;13.90;93.38;100969.41;4977730;28;20051;-82
2021/08/09 05:03:36;;;;;;;8.10;3.85;;;;;;;13.98;92.47;100972.00;4983134;28;20062;-82
2021/08/09 05:06:01;;;;;;;12.65;3.90;;;;;;;13.97;92.91;100973.03;4981795;28;20105;-83
2021/08/09 05:08:26;;;;;;;12.07;3.95;;;;;;;13.97;92.80;100976.56;4980420;28;20054;-82
2021/08/09 05:10:52;;;;;;;10.15;3.85;;;;;;;14.02;92.41;100975.19;4981601;28;20035;-82
2021/08/09 05:13:17;;;;;;;8.18;3.72;;;;;;;14.04;92.44;100979.38;4982524;28;20487;-83
2021/08/09 05:15:42;;;;;;;10.13;3.92;;;;;;;14.06;92.22;100980.03;4984022;28;20573;-81
2021/08/09 05:18:12;;;;;;;8.63;4.18;;;;;;;14.09;92.29;100982.34;4976202;28;20491;-82
2021/08/09 05:20:38;;;;;;;12.20;3.83;;;;;;;14.15;91.66;100975.38;4980884;28;20129;-82
2021/08/09 05:23:03;;;;;;;8.88;3.75;;;;;;;14.18;91.81;100975.88;4980815;28;20631;-82
2021/08/09 05:25:31;;;;;;;10.75;3.90;;;;;;;14.22;91.65;100979.88;4979732;28;20035;-82
2021/08/09 05:27:56;;;;;;;8.60;3.15;;;;;;;14.27;91.63;100978.47;4976118;28;20273;-81
2021/08/09 05:30:22;;;;;;;10.57;4.13;;;;;;;14.31;91.51;100979.81;4977145;28;20038;-83
2021/08/09 05:32:47;;;;;;;11.40;3.83;;;;;;;14.33;91.16;100983.16;4986106;28;20055;-81
2021/08/09 05:35:13;;;;;;;7.05;3.38;;;;;;;14.39;91.24;100980.56;4991415;28;20050;-81
2021/08/09 05:37:38;;;;;;;9.23;3.83;;;;;;;14.42;91.21;100977.50;4985669;28;20139;-82
2021/08/09 05:40:06;;;;;;;6.85;2.90;;;;;;;14.48;90.76;100986.72;4982951;28;20068;-81
2021/08/09 05:42:31;;;;;;;10.18;3.35;;;;;;;14.55;90.69;100992.22;4981781;28;20054;-78
2021/08/09 05:44:56;;;;;;;8.50;3.60;;;;;;;14.65;90.04;100993.63;4983419;28;20225;-81
2021/08/09 05:47:23;;;;;;;10.95;3.30;;;;;;;14.70;89.84;100986.81;4983511;28;20069;-81
2021/08/09 05:49:49;;;;;;;10.77;3.47;;;;;;;14.75;89.50;100995.22;4975165;28;20051;-81
2021/08/09 05:52:22;;;;;;;10.50;3.33;;;;;;;14.79;89.48;100993.84;4972734;28;20185;-81
2021/08/09 05:54:48;;;;;;;7.85;2.95;;;;;;;14.79;89.62;101001.94;4983856;28;20110;-80
2021/08/09 05:57:14;;;;;;;6.50;3.10;;;;;;;14.84;89.21;100997.63;4980853;28;20050;-82
2021/08/09 05:59:40;;;;;;;9.70;3.40;;;;;;;14.88;89.32;101003.50;4981237;28;20053;-81
2021/08/09 06:02:05;;;;;;;8.88;3.05;;;;;;;14.91;89.35;100997.75;4985113;28;20042;-81
2021/08/09 06:04:31;;;;;;;8.63;2.83;;;;;;;14.93;89.03;101001.06;4984447;28;20599;-80
2021/08/09 06:06:57;;;;;;;7.32;3.08;;;;;;;14.98;89.01;101008.63;4982369;28;20125;-81
2021/08/09 06:09:22;;;;;;;9.10;2.85;;;;;;;14.99;88.86;101004.88;4985224;28;20129;-83
2021/08/09 06:11:47;;;;;;;8.00;3.20;;;;;;;14.99;89.03;101005.75;4984478;28;20491;-82
2021/08/09 06:14:13;;;;;;;10.52;3.17;;;;;;;15.03;89.14;101004.31;4982998;28;20053;-81
2021/08/09 06:16:38;;;;;;;9.00;3.00;;;;;;;15.07;89.02;101007.47;4997775;28;20038;-81
2021/08/09 06:19:04;;;;;;;12.68;3.97;;;;;;;15.10;88.35;101001.69;4990826;28;20046;-80
2021/08/09 06:21:29;;;;;;;10.23;3.17;;;;;;;15.16;88.34;101003.66;4964725;28;20046;-84
2021/08/09 06:23:54;;;;;;;9.50;2.88;;;;;;;15.20;88.31;101007.66;4985481;28;20038;-83
2021/08/09 06:26:20;;;;;;;8.57;2.83;;;;;;;15.27;87.90;101005.03;5017756;28;20038;-80
2021/08/09 06:28:45;;;;;;;6.72;2.70;;;;;;;15.33;87.90;101006.97;4983110;28;20141;-83
2021/08/09 06:31:11;;;;;;;6.82;2.75;;;;;;;15.37;87.88;101008.28;4979076;28;20046;-81
2021/08/09 06:33:36;;;;;;;8.57;2.63;;;;;;;15.39;87.50;101011.63;4980178;28;20376;-84
2021/08/09 06:36:02;;;;;;;8.05;2.72;;;;;;;15.45;87.16;101005.47;4980010;28;20046;-86
2021/08/09 06:38:29;;;;;;;9.43;2.88;;;;;;;15.48;87.11;101002.38;4977589;28;20038;-81
2021/08/09 06:40:54;;;;;;;8.95;2.78;;;;;;;15.56;87.37;101001.41;4980310;28;20089;-83
2021/08/09 06:43:20;;;;;;;6.90;2.60;;;;;;;15.60;87.09;101005.41;4977181;28;20477;-81
2021/08/09 06:45:45;;;;;;;11.52;3.20;;;;;;;15.64;86.79;101003.16;4974202;28;20047;-86
2021/08/09 06:48:12;;;;;;;9.00;2.88;;;;;;;15.70;86.62;101007.81;4983084;28;20480;-81
2021/08/09 06:50:39;;;;;;;9.20;3.45;;;;;;;15.72;86.62;101006.59;4976654;28;20133;-81
2021/08/09 06:53:04;;;;;;;6.72;3.22;;;;;;;15.75;86.69;101008.09;4982344;28;20395;-85
2021/08/09 06:55:29;;;;;;;8.20;3.33;;;;;;;15.80;86.98;101000.25;4980114;28;20042;-82
2021/08/09 06:57:56;;;;;;;10.45;3.47;;;;;;;15.84;87.41;101008.81;4987950;28;20042;-82
2021/08/09 07:00:21;;;;;;;7.93;3.05;;;;;;;15.85;86.59;101010.47;4986333;28;20042;-79
2021/08/09 07:02:47;;;;;;;7.07;3.03;;;;;;;15.90;86.83;101013.44;4978088;28;20418;-85
2021/08/09 07:05:12;;;;;;;8.50;3.50;;;;;;;15.93;86.06;101024.69;4985642;28;20043;-80
2021/08/09 07:07:40;;;;;;;6.57;3.45;;;;;;;15.90;86.88;101022.38;4987244;28;20122;-81
2021/08/09 07:10:06;;;;;;;10.98;3.25;;;;;;;15.96;86.45;101020.78;4985207;28;20060;-84
2021/08/09 07:12:31;;;;;;;8.68;3.17;;;;;;;15.94;87.78;101023.69;4986536;28;20046;-82
2021/08/09 07:14:57;;;;;;;6.70;2.80;;;;;;;15.97;87.30;101017.06;4985617;28;20154;-81
2021/08/09 07:17:23;;;;;;;6.45;2.70;;;;;;;15.99;87.33;101025.78;4984684;28;20403;-78
2021/08/09 07:19:48;;;;;;;7.88;3.63;;;;;;;16.05;87.15;101024.19;4992610;28;20047;-85
2021/08/09 07:22:13;;;;;;;7.50;3.50;;;;;;;16.06;87.35;101029.41;4985471;28;20053;-86
2021/08/09 07:24:39;;;;;;;7.43;3.08;;;;;;;16.09;87.89;101028.19;4979370;28;20047;-82
2021/08/09 07:27:04;;;;;;;9.65;3.30;;;;;;;16.06;87.51;101018.59;4984514;28;20065;-81
2021/08/09 07:29:31;;;;;;;8.25;3.20;;;;;;;16.06;87.29;101024.00;4981734;28;20058;-84
2021/08/09 07:31:58;;;;;;;8.50;3.35;;;;;;;16.07;87.54;101028.38;4986243;28;20507;-80
2021/08/09 07:34:24;;;;;;;6.10;3.25;;;;;;;16.09;87.94;101022.78;4987441;28;20043;-87
2021/08/09 07:36:50;;;;;;;6.95;3.20;;;;;;;16.09;87.93;101029.03;5018135;28;20080;-84
2021/08/09 07:39:16;;;;;;;7.60;2.95;;;;;;;16.11;88.20;101023.41;4987047;28;20042;-85
2021/08/09 07:41:41;;;;;;;6.68;3.25;;;;;;;16.10;87.95;101029.84;4980949;28;20510;-83
2021/08/09 07:44:08;;;;;;;7.45;2.90;;;;;;;16.11;87.80;101028.81;4986316;28;20039;-84
2021/08/09 07:46:33;;;;;;;7.45;3.00;;;;;;;16.15;88.13;101027.41;5002212;28;20051;-84
2021/08/09 07:48:58;;;;;;;6.75;3.00;;;;;;;16.14;87.82;101029.28;4983213;28;20046;-86
2021/08/09 07:51:24;;;;;;;6.95;3.35;;;;;;;16.10;87.69;101027.97;5002614;28;20039;-81
2021/08/09 07:53:49;;;;;;;11.60;3.50;;;;;;;16.14;88.07;101031.13;4987808;28;20061;-84
2021/08/09 07:56:15;;;;;;;5.95;2.95;;;;;;;16.16;88.66;101037.19;4986899;28;20137;-84
2021/08/09 07:58:41;;;;;;;8.50;3.45;;;;;;;16.13;88.42;101030.28;4986513;28;20129;-82
2021/08/09 08:01:08;;;;;;;6.95;3.30;;;;;;;16.15;88.73;101024.69;4986532;28;20042;-80
2021/08/09 08:03:33;;;;;;;6.82;2.92;;;;;;;16.16;88.83;101034.50;5002068;28;20069;-87
2021/08/09 08:05:59;;;;;;;9.02;3.47;;;;;;;16.15;88.69;101038.25;4984482;28;20380;-85
2021/08/09 08:08:25;;;;;;;5.63;3.30;;;;;;;16.17;88.67;101028.03;4967521;28;20054;-84
2021/08/09 08:10:50;;;;;;;6.82;3.30;;;;;;;16.22;88.87;101034.53;4964563;28;20050;-85
2021/08/09 08:13:16;;;;;;;10.23;3.28;;;;;;;16.30;88.90;101036.28;4981076;28;20476;-83
2021/08/09 08:15:43;;;;;;;8.95;3.38;;;;;;;16.29;88.69;101034.59;4963179;28;20554;-84
2021/08/09 08:18:08;;;;;;;7.60;3.45;;;;;;;16.30;88.68;101030.84;4989658;28;20086;-85
2021/08/09 08:20:34;;;;;;;7.55;3.38;;;;;;;16.30;88.05;101036.28;4962364;28;20042;-85
2021/08/09 08:23:02;;;;;;;7.70;3.40;;;;;;;16.29;88.06;101034.59;4974024;28;20039;-86
2021/08/09 08:25:28;;;;;;;7.40;3.13;;;;;;;16.39;87.97;101040.50;4984435;28;20097;-83
2021/08/09 08:27:54;;;;;;;7.15;3.00;;;;;;;16.44;87.94;101032.63;4986602;28;20496;-83
2021/08/09 08:30:20;;;;;;;5.60;2.90;;;;;;;16.54;87.41;101031.44;4985068;28;20050;-81
2021/08/09 08:32:46;;;;;;;5.85;2.75;;;;;;;16.57;87.29;101040.03;4987334;28;20042;-82
2021/08/09 08:35:11;;;;;;;6.68;3.00;;;;;;;16.61;86.89;101035.06;4986515;28;20065;-83
2021/08/09 08:37:37;;;;;;;7.15;3.25;;;;;;;16.65;86.38;101036.31;4982748;28;20046;-86
2021/08/09 08:40:03;;;;;;;6.28;2.47;;;;;;;16.74;86.33;101040.53;4982185;28;20054;-84
2021/08/09 08:42:28;;;;;;;7.25;2.78;;;;;;;16.87;85.97;101040.66;4983086;28;20062;-84
2021/08/09 08:44:54;;;;;;;6.28;2.55;;;;;;;16.91;85.16;101044.63;4984798;28;20070;-86
2021/08/09 08:47:20;;;;;;;6.32;2.70;;;;;;;17.05;85.71;101039.28;5001322;28;20074;-83
2021/08/09 08:49:47;;;;;;;8.02;3.10;;;;;;;17.11;85.12;101031.19;4986031;28;20527;-81
2021/08/09 08:52:13;;;;;;;6.25;2.47;;;;;;;17.17;84.12;101045.81;4984024;28;20153;-85
2021/08/09 08:54:39;;;;;;;9.02;3.13;;;;;;;17.22;84.02;101048.75;4975387;28;20050;-82
2021/08/09 08:57:15;;;;;;;7.40;2.65;;;;;;;17.39;83.51;101053.84;4980543;28;20046;-83
2021/08/09 08:59:40;;;;;;;7.25;2.10;;;;;;;17.40;82.75;101044.66;4984974;28;20038;-81
2021/08/09 09:02:06;;;;;;;6.70;2.33;;;;;;;17.47;83.26;101048.25;4986956;28;20542;-81
2021/08/09 09:04:32;;;;;;;7.38;2.78;;;;;;;17.48;82.37;101047.19;5009798;28;20623;-86
2021/08/09 09:07:07;;;;;;;5.80;2.30;;;;;;;17.56;82.67;101049.75;4984461;28;20050;-80
2021/08/09 09:09:37;;;;;;;4.15;2.47;;;;;;;17.60;81.51;101051.00;4981117;28;20050;-83
2021/08/09 09:12:20;;;;;;;8.20;2.65;;;;;;;17.78;82.06;101050.44;4980540;28;20038;-84
2021/08/09 09:15:03;;;;;;;5.88;2.30;;;;;;;17.84;80.70;101054.22;4982497;28;20142;-82
2021/08/09 09:17:34;;;;;;;6.47;2.55;;;;;;;17.76;80.55;101047.91;4984537;28;20109;-82
2021/08/09 09:20:26;;;;;;;8.43;2.15;;;;;;;17.68;80.68;101053.53;4978937;28;20150;-82
2021/08/09 09:23:09;;;;;;;6.55;2.47;;;;;;;17.70;81.00;101054.16;4988456;28;20046;-84
2021/08/09 09:25:35;;;;;;;7.63;2.20;;;;;;;17.65;80.12;101051.22;4980487;28;20499;-85
2021/08/09 09:28:24;;;;;;;6.43;2.47;;;;;;;17.74;80.92;101046.44;4981168;28;20065;-82
2021/08/09 09:30:50;;;;;;;5.38;2.10;;;;;;;17.88;80.82;101041.91;5011060;28;20487;-83
2021/08/09 09:33:16;;;;;;;8.18;2.13;;;;;;;18.01;80.18;101040.06;4997993;28;20377;-86
2021/08/09 09:35:41;;;;;;;7.18;2.35;;;;;;;18.26;81.18;101040.25;4981058;28;20042;-82
2021/08/09 09:38:07;;;;;;;4.82;2.53;;;;;;;18.32;79.18;101040.47;4969696;28;20108;-81
2021/08/09 09:40:40;;;;;;;5.70;1.88;;;;;;;18.33;78.96;101043.00;4957542;28;20046;-83
2021/08/09 09:43:18;;;;;;;8.30;2.53;;;;;;;18.41;79.94;101050.06;4970182;28;20054;-85
2021/08/09 09:45:54;;;;;;;5.35;2.03;;;;;;;18.42;77.70;101046.34;4979838;28;20057;-80
2021/08/09 09:48:40;;;;;;;6.53;1.70;;;;;;;18.38;77.73;101045.91;4995086;28;20073;-85
2021/08/09 09:51:13;;;;;;;6.25;2.22;;;;;;;18.40;77.08;101053.84;4983802;28;20042;-83
2021/08/09 09:53:42;;;;;;;5.65;2.05;;;;;;;18.41;77.89;101047.38;4982122;28;20046;-84
2021/08/09 09:56:08;;;;;;;7.17;2.30;;;;;;;18.41;77.58;101041.94;4983754;28;20038;-79
2021/08/09 09:58:38;;;;;;;8.55;2.17;;;;;;;18.51;77.74;101050.50;4980836;28;20740;-83
2021/08/09 10:01:08;;;;;;;7.10;2.17;;;;;;;18.62;75.87;101051.75;4996325;28;20052;-85
2021/08/09 10:03:35;;;;;;;6.90;2.10;;;;;;;18.79;76.85;101052.16;4967585;28;20047;-86
2021/08/09 10:06:01;;;;;;;3.95;1.80;;;;;;;18.89;75.72;101045.22;4965135;28;20563;-84
2021/08/09 10:08:54;;;;;;;8.55;2.38;;;;;;;18.92;75.25;101052.13;4977720;28;20482;-85
2021/08/09 10:11:21;;;;;;;5.95;1.95;;;;;;;18.98;75.05;101040.41;4978395;28;20038;-86
2021/08/09 10:13:47;;;;;;;5.07;1.92;;;;;;;19.05;76.12;101046.66;4987655;28;20402;-83
2021/08/09 10:16:13;;;;;;;7.25;2.20;;;;;;;19.09;75.68;101045.19;4984012;28;20121;-82
2021/08/09 10:18:51;;;;;;;6.60;2.20;;;;;;;19.10;75.54;101051.44;4983806;28;20054;-80
2021/08/09 10:21:18;;;;;;;5.40;2.00;;;;;;;19.00;74.06;101051.09;4977728;28;20144;-81
2021/08/09 10:23:45;;;;;;;6.10;2.28;;;;;;;18.93;75.61;101046.50;4998563;28;20065;-83
2021/08/09 10:26:34;;;;;;;8.25;2.40;;;;;;;19.10;76.36;101048.72;4985917;28;20062;-83
2021/08/09 10:28:59;;;;;;;;;;;;;;;19.31;75.39;101048.47;4974692;28;20232;-84
2021/08/09 10:31:26;;;;;;;7.33;2.10;;;;;;;19.38;75.11;101051.13;4963370;28;19945;-83
2021/08/09 10:33:53;;;;;;;4.38;2.35;;;;;;;19.49;74.02;101050.47;4978973;28;20082;-82
2021/08/09 10:36:23;;;;;;;6.13;1.48;;;;;;;19.59;71.91;101053.56;5000288;28;20042;-83
2021/08/09 10:38:50;;;;;;;4.25;1.75;;;;;;;19.67;71.00;101035.31;4981896;28;20042;-84
2021/08/09 10:41:15;;;;;;;5.57;2.05;;;;;;;19.70;70.36;101034.88;4983305;28;20427;-82
2021/08/09 10:44:05;;;;;;;4.05;1.80;;;;;;;19.84;70.74;101037.31;4983998;28;20050;-84
2021/08/09 10:46:38;;;;;;;6.65;1.80;;;;;;;19.98;71.75;101040.78;4979547;28;20034;-81
2021/08/09 10:49:05;;;;;;;4.32;1.52;;;;;;;19.90;69.06;101037.47;4982005;28;20112;-83
2021/08/09 10:51:52;;;;;;;5.90;1.85;;;;;;;19.75;70.62;101030.47;4980415;28;20050;-84
2021/08/09 10:54:28;;;;;;;5.55;1.58;;;;;;;19.95;69.81;101046.66;4995722;28;20042;-83
2021/08/09 10:56:55;;;;;;;3.65;2.00;;;;;;;20.08;70.88;101029.38;4998363;28;20042;-82
2021/08/09 10:59:48;;;;;;;6.30;1.75;;;;;;;20.18;68.26;101023.44;4982803;28;20116;-79
2021/08/09 11:02:18;;;;;;;5.38;1.70;;;;;;;20.27;69.12;101027.56;4983666;28;20117;-80
2021/08/09 11:05:04;;;;;;;4.53;1.80;;;;;;;20.39;69.89;101022.22;4981006;28;20057;-81
2021/08/09 11:07:30;;;;;;;4.85;1.48;;;;;;;20.55;68.93;101026.31;4978440;28;20137;-86
2021/08/09 11:09:55;;;;;;;4.28;1.80;;;;;;;20.65;68.47;101015.69;4983916;28;20121;-87
2021/08/09 11:12:23;;;;;;;4.65;1.63;;;;;;;20.68;67.13;101028.88;4981584;28;20073;-85
2021/08/09 11:15:04;;;;;;;6.85;1.88;;;;;;;20.57;67.50;101021.44;4982555;28;20109;-84
2021/08/09 11:17:31;;;;;;;6.00;1.90;;;;;;;20.39;66.87;101020.31;4982976;28;20049;-83
2021/08/09 11:20:12;;;;;;;5.80;1.70;;;;;;;20.48;68.40;101021.72;4983531;28;20676;-87
2021/08/09 11:22:39;;;;;;;4.78;1.80;;;;;;;20.53;67.36;101023.78;4958757;28;20053;-83
2021/08/09 11:25:26;;;;;;;4.20;1.80;;;;;;;20.49;66.98;101026.09;4961671;28;20038;-84
2021/08/09 11:28:09;;;;;;;5.15;1.70;;;;;;;20.51;67.04;101039.50;4944608;28;20358;-87